sensor_id;sensor_type;location;lat;lon;timestamp;temperature;humidity
79786;DHT22;69265;43.614;13.518;2024-01-30T00:02:14;4.80;76.60
79786;DHT22;69265;43.614;13.518;2024-01-30T00:04:39;4.70;76.30
79786;DHT22;69265;43.614;13.518;2024-01-30T00:07:05;4.70;76.40
79786;DHT22;69265;43.614;13.518;2024-01-30T00:09:30;4.60;76.60
79786;DHT22;69265;43.614;13.518;2024-01-30T00:11:56;4.50;76.50
79786;DHT22;69265;43.614;13.518;2024-01-30T00:14:22;4.50;76.60
79786;DHT22;69265;43.614;13.518;2024-01-30T00:16:48;4.50;76.60
79786;DHT22;69265;43.614;13.518;2024-01-30T00:19:14;4.50;76.40
79786;DHT22;69265;43.614;13.518;2024-01-30T00:21:39;4.50;76.10
79786;DHT22;69265;43.614;13.518;2024-01-30T00:24:05;4.40;76.20
79786;DHT22;69265;43.614;13.518;2024-01-30T00:26:30;4.40;76.10
79786;DHT22;69265;43.614;13.518;2024-01-30T00:28:56;4.40;76.10
79786;DHT22;69265;43.614;13.518;2024-01-30T00:31:22;4.40;76.10
79786;DHT22;69265;43.614;13.518;2024-01-30T00:33:47;4.30;75.90
79786;DHT22;69265;43.614;13.518;2024-01-30T00:36:13;4.30;76.00
79786;DHT22;69265;43.614;13.518;2024-01-30T00:38:38;4.30;76.10
79786;DHT22;69265;43.614;13.518;2024-01-30T00:41:06;4.30;76.10
79786;DHT22;69265;43.614;13.518;2024-01-30T00:43:32;4.20;76.10
79786;DHT22;69265;43.614;13.518;2024-01-30T00:45:57;4.30;76.20
79786;DHT22;69265;43.614;13.518;2024-01-30T00:48:23;4.20;76.20
79786;DHT22;69265;43.614;13.518;2024-01-30T00:50:48;4.30;76.30
79786;DHT22;69265;43.614;13.518;2024-01-30T00:53:14;4.20;76.00
79786;DHT22;69265;43.614;13.518;2024-01-30T00:55:40;4.20;76.10
79786;DHT22;69265;43.614;13.518;2024-01-30T00:58:05;4.10;76.20
79786;DHT22;69265;43.614;13.518;2024-01-30T01:03:12;4.20;76.20
79786;DHT22;69265;43.614;13.518;2024-01-30T01:05:39;4.10;76.10
79786;DHT22;69265;43.614;13.518;2024-01-30T01:08:05;4.10;76.30
79786;DHT22;69265;43.614;13.518;2024-01-30T01:10:30;4.10;76.20
79786;DHT22;69265;43.614;13.518;2024-01-30T01:12:56;4.10;76.10
79786;DHT22;69265;43.614;13.518;2024-01-30T01:15:21;4.10;76.30
79786;DHT22;69265;43.614;13.518;2024-01-30T01:17:47;4.00;76.20
79786;DHT22;69265;43.614;13.518;2024-01-30T01:20:12;4.00;76.40
79786;DHT22;69265;43.614;13.518;2024-01-30T01:22:38;4.00;76.50
79786;DHT22;69265;43.614;13.518;2024-01-30T01:25:04;3.90;76.70
79786;DHT22;69265;43.614;13.518;2024-01-30T01:27:32;4.00;76.80
79786;DHT22;69265;43.614;13.518;2024-01-30T01:29:59;4.00;76.60
79786;DHT22;69265;43.614;13.518;2024-01-30T01:32:25;4.00;76.50
79786;DHT22;69265;43.614;13.518;2024-01-30T01:34:51;4.00;76.50
79786;DHT22;69265;43.614;13.518;2024-01-30T01:37:16;4.00;76.60
79786;DHT22;69265;43.614;13.518;2024-01-30T01:39:42;4.00;76.60
79786;DHT22;69265;43.614;13.518;2024-01-30T01:42:07;4.00;76.50
79786;DHT22;69265;43.614;13.518;2024-01-30T01:44:33;4.00;76.40
79786;DHT22;69265;43.614;13.518;2024-01-30T01:46:59;4.00;76.30
79786;DHT22;69265;43.614;13.518;2024-01-30T01:49:25;4.00;76.30
79786;DHT22;69265;43.614;13.518;2024-01-30T01:51:50;3.90;76.30
79786;DHT22;69265;43.614;13.518;2024-01-30T01:54:17;3.90;76.40
79786;DHT22;69265;43.614;13.518;2024-01-30T01:56:42;3.90;76.30
79786;DHT22;69265;43.614;13.518;2024-01-30T01:59:08;3.90;76.20
79786;DHT22;69265;43.614;13.518;2024-01-30T02:01:35;3.90;76.20
79786;DHT22;69265;43.614;13.518;2024-01-30T02:04:01;3.90;76.10
79786;DHT22;69265;43.614;13.518;2024-01-30T02:06:27;3.90;75.90
79786;DHT22;69265;43.614;13.518;2024-01-30T02:08:53;3.90;75.80
79786;DHT22;69265;43.614;13.518;2024-01-30T02:11:19;3.90;75.90
79786;DHT22;69265;43.614;13.518;2024-01-30T02:13:45;3.90;76.10
79786;DHT22;69265;43.614;13.518;2024-01-30T02:16:11;3.90;75.80
79786;DHT22;69265;43.614;13.518;2024-01-30T02:18:36;3.80;75.80
79786;DHT22;69265;43.614;13.518;2024-01-30T02:21:07;3.80;75.70
79786;DHT22;69265;43.614;13.518;2024-01-30T02:23:33;3.80;75.70
79786;DHT22;69265;43.614;13.518;2024-01-30T02:25:59;3.70;75.70
79786;DHT22;69265;43.614;13.518;2024-01-30T02:28:25;3.70;75.70
79786;DHT22;69265;43.614;13.518;2024-01-30T02:30:51;3.70;75.60
79786;DHT22;69265;43.614;13.518;2024-01-30T02:33:17;3.70;75.70
79786;DHT22;69265;43.614;13.518;2024-01-30T02:35:42;3.70;75.70
79786;DHT22;69265;43.614;13.518;2024-01-30T02:38:08;3.70;75.50
79786;DHT22;69265;43.614;13.518;2024-01-30T02:40:34;3.60;75.50
79786;DHT22;69265;43.614;13.518;2024-01-30T02:42:59;3.70;75.70
79786;DHT22;69265;43.614;13.518;2024-01-30T02:45:25;3.70;75.40
79786;DHT22;69265;43.614;13.518;2024-01-30T02:47:51;3.60;75.40
79786;DHT22;69265;43.614;13.518;2024-01-30T02:50:16;3.60;75.50
79786;DHT22;69265;43.614;13.518;2024-01-30T02:52:42;3.60;75.50
79786;DHT22;69265;43.614;13.518;2024-01-30T02:55:11;3.60;75.40
79786;DHT22;69265;43.614;13.518;2024-01-30T02:57:37;3.50;75.10
79786;DHT22;69265;43.614;13.518;2024-01-30T03:00:03;3.50;75.20
79786;DHT22;69265;43.614;13.518;2024-01-30T03:02:30;3.50;75.30
79786;DHT22;69265;43.614;13.518;2024-01-30T03:04:56;3.50;75.20
79786;DHT22;69265;43.614;13.518;2024-01-30T03:07:22;3.50;75.00
79786;DHT22;69265;43.614;13.518;2024-01-30T03:09:47;3.50;75.10
79786;DHT22;69265;43.614;13.518;2024-01-30T03:12:13;3.50;74.80
79786;DHT22;69265;43.614;13.518;2024-01-30T03:14:39;3.50;74.70
79786;DHT22;69265;43.614;13.518;2024-01-30T03:17:04;3.40;74.50
79786;DHT22;69265;43.614;13.518;2024-01-30T03:19:30;3.40;74.70
79786;DHT22;69265;43.614;13.518;2024-01-30T03:21:55;3.50;74.80
79786;DHT22;69265;43.614;13.518;2024-01-30T03:24:21;3.50;74.80
79786;DHT22;69265;43.614;13.518;2024-01-30T03:26:46;3.50;74.70
79786;DHT22;69265;43.614;13.518;2024-01-30T03:29:12;3.50;74.60
79786;DHT22;69265;43.614;13.518;2024-01-30T03:31:38;3.50;74.50
79786;DHT22;69265;43.614;13.518;2024-01-30T03:34:04;3.40;74.60
79786;DHT22;69265;43.614;13.518;2024-01-30T03:36:29;3.40;74.80
79786;DHT22;69265;43.614;13.518;2024-01-30T03:38:58;3.40;74.70
79786;DHT22;69265;43.614;13.518;2024-01-30T03:41:23;3.30;74.70
79786;DHT22;69265;43.614;13.518;2024-01-30T03:43:49;3.40;74.90
79786;DHT22;69265;43.614;13.518;2024-01-30T03:46:15;3.40;74.80
79786;DHT22;69265;43.614;13.518;2024-01-30T03:48:41;3.40;74.60
79786;DHT22;69265;43.614;13.518;2024-01-30T03:51:06;3.40;74.60
79786;DHT22;69265;43.614;13.518;2024-01-30T03:53:32;3.30;74.60
79786;DHT22;69265;43.614;13.518;2024-01-30T03:55:58;3.30;74.60
79786;DHT22;69265;43.614;13.518;2024-01-30T03:58:23;3.30;74.60
79786;DHT22;69265;43.614;13.518;2024-01-30T04:00:49;3.30;74.70
79786;DHT22;69265;43.614;13.518;2024-01-30T04:03:15;3.30;74.80
79786;DHT22;69265;43.614;13.518;2024-01-30T04:05:41;3.30;74.90
79786;DHT22;69265;43.614;13.518;2024-01-30T04:08:07;3.30;74.80
79786;DHT22;69265;43.614;13.518;2024-01-30T04:10:32;3.20;74.90
79786;DHT22;69265;43.614;13.518;2024-01-30T04:12:58;3.20;74.90
79786;DHT22;69265;43.614;13.518;2024-01-30T04:15:24;3.20;74.80
79786;DHT22;69265;43.614;13.518;2024-01-30T04:17:50;3.20;74.60
79786;DHT22;69265;43.614;13.518;2024-01-30T04:20:18;3.10;74.20
79786;DHT22;69265;43.614;13.518;2024-01-30T04:22:44;3.10;74.00
79786;DHT22;69265;43.614;13.518;2024-01-30T04:25:10;3.10;74.10
79786;DHT22;69265;43.614;13.518;2024-01-30T04:27:36;3.10;74.20
79786;DHT22;69265;43.614;13.518;2024-01-30T04:30:01;3.10;74.10
79786;DHT22;69265;43.614;13.518;2024-01-30T04:32:27;3.10;74.10
79786;DHT22;69265;43.614;13.518;2024-01-30T04:34:52;3.10;74.00
79786;DHT22;69265;43.614;13.518;2024-01-30T04:37:18;3.10;73.80
79786;DHT22;69265;43.614;13.518;2024-01-30T04:39:43;3.10;73.60
79786;DHT22;69265;43.614;13.518;2024-01-30T04:42:09;3.10;73.50
79786;DHT22;69265;43.614;13.518;2024-01-30T04:44:34;3.10;73.50
79786;DHT22;69265;43.614;13.518;2024-01-30T04:47:00;3.10;73.30
79786;DHT22;69265;43.614;13.518;2024-01-30T04:49:27;3.10;73.30
79786;DHT22;69265;43.614;13.518;2024-01-30T04:51:52;3.10;73.30
79786;DHT22;69265;43.614;13.518;2024-01-30T04:54:18;3.10;73.20
79786;DHT22;69265;43.614;13.518;2024-01-30T04:56:43;3.10;73.10
79786;DHT22;69265;43.614;13.518;2024-01-30T04:59:09;3.10;72.80
79786;DHT22;69265;43.614;13.518;2024-01-30T05:01:35;3.10;72.60
79786;DHT22;69265;43.614;13.518;2024-01-30T05:04:00;3.00;72.60
79786;DHT22;69265;43.614;13.518;2024-01-30T05:06:26;3.00;72.80
79786;DHT22;69265;43.614;13.518;2024-01-30T05:08:52;3.00;72.50
79786;DHT22;69265;43.614;13.518;2024-01-30T05:11:18;3.00;72.50
79786;DHT22;69265;43.614;13.518;2024-01-30T05:13:44;3.00;72.40
79786;DHT22;69265;43.614;13.518;2024-01-30T05:16:09;3.00;72.50
79786;DHT22;69265;43.614;13.518;2024-01-30T05:18:35;2.90;72.70
79786;DHT22;69265;43.614;13.518;2024-01-30T05:21:01;2.90;72.70
79786;DHT22;69265;43.614;13.518;2024-01-30T05:23:27;2.90;72.70
79786;DHT22;69265;43.614;13.518;2024-01-30T05:25:52;3.00;72.90
79786;DHT22;69265;43.614;13.518;2024-01-30T05:28:18;3.00;72.80
79786;DHT22;69265;43.614;13.518;2024-01-30T05:30:44;3.00;72.50
79786;DHT22;69265;43.614;13.518;2024-01-30T05:33:09;3.00;72.30
79786;DHT22;69265;43.614;13.518;2024-01-30T05:35:37;3.00;72.50
79786;DHT22;69265;43.614;13.518;2024-01-30T05:38:03;3.00;72.30
79786;DHT22;69265;43.614;13.518;2024-01-30T05:40:28;2.90;72.20
79786;DHT22;69265;43.614;13.518;2024-01-30T05:42:54;3.00;72.30
79786;DHT22;69265;43.614;13.518;2024-01-30T05:45:19;3.00;72.20
79786;DHT22;69265;43.614;13.518;2024-01-30T05:47:45;2.90;72.00
79786;DHT22;69265;43.614;13.518;2024-01-30T05:50:11;3.00;72.10
79786;DHT22;69265;43.614;13.518;2024-01-30T05:52:36;3.00;71.90
79786;DHT22;69265;43.614;13.518;2024-01-30T05:55:02;3.00;71.90
79786;DHT22;69265;43.614;13.518;2024-01-30T05:57:28;3.00;72.00
79786;DHT22;69265;43.614;13.518;2024-01-30T05:59:54;3.00;72.00
79786;DHT22;69265;43.614;13.518;2024-01-30T06:02:19;3.00;71.90
79786;DHT22;69265;43.614;13.518;2024-01-30T06:04:45;3.10;71.90
79786;DHT22;69265;43.614;13.518;2024-01-30T06:07:10;3.10;71.50
79786;DHT22;69265;43.614;13.518;2024-01-30T06:09:36;3.00;71.50
79786;DHT22;69265;43.614;13.518;2024-01-30T06:12:01;3.00;71.60
79786;DHT22;69265;43.614;13.518;2024-01-30T06:14:27;3.10;71.60
79786;DHT22;69265;43.614;13.518;2024-01-30T06:16:53;3.10;71.60
79786;DHT22;69265;43.614;13.518;2024-01-30T06:19:18;3.10;71.70
79786;DHT22;69265;43.614;13.518;2024-01-30T06:21:44;3.10;71.60
79786;DHT22;69265;43.614;13.518;2024-01-30T06:24:10;3.10;71.50
79786;DHT22;69265;43.614;13.518;2024-01-30T06:26:36;3.20;71.20
79786;DHT22;69265;43.614;13.518;2024-01-30T06:29:01;3.20;71.20
79786;DHT22;69265;43.614;13.518;2024-01-30T06:31:29;3.30;71.10
79786;DHT22;69265;43.614;13.518;2024-01-30T06:33:55;3.30;70.90
79786;DHT22;69265;43.614;13.518;2024-01-30T06:36:20;3.30;70.80
79786;DHT22;69265;43.614;13.518;2024-01-30T06:38:46;3.30;70.50
79786;DHT22;69265;43.614;13.518;2024-01-30T06:41:11;3.30;70.20
79786;DHT22;69265;43.614;13.518;2024-01-30T06:43:37;3.30;70.50
79786;DHT22;69265;43.614;13.518;2024-01-30T06:46:02;3.40;70.60
79786;DHT22;69265;43.614;13.518;2024-01-30T06:48:28;3.40;70.30
79786;DHT22;69265;43.614;13.518;2024-01-30T06:50:54;3.50;70.40
79786;DHT22;69265;43.614;13.518;2024-01-30T06:53:19;3.50;70.50
79786;DHT22;69265;43.614;13.518;2024-01-30T06:55:45;3.60;70.30
79786;DHT22;69265;43.614;13.518;2024-01-30T06:58:11;3.70;70.00
79786;DHT22;69265;43.614;13.518;2024-01-30T07:00:37;3.70;69.80
79786;DHT22;69265;43.614;13.518;2024-01-30T07:03:03;3.90;69.50
79786;DHT22;69265;43.614;13.518;2024-01-30T07:05:28;3.90;69.40
79786;DHT22;69265;43.614;13.518;2024-01-30T07:07:54;3.90;69.00
79786;DHT22;69265;43.614;13.518;2024-01-30T07:10:19;3.90;69.00
79786;DHT22;69265;43.614;13.518;2024-01-30T07:12:45;4.00;68.90
79786;DHT22;69265;43.614;13.518;2024-01-30T07:15:10;4.10;68.80
79786;DHT22;69265;43.614;13.518;2024-01-30T07:17:36;4.10;68.70
79786;DHT22;69265;43.614;13.518;2024-01-30T07:20:02;4.20;68.70
79786;DHT22;69265;43.614;13.518;2024-01-30T07:22:29;4.30;68.40
79786;DHT22;69265;43.614;13.518;2024-01-30T07:24:55;4.40;68.30
79786;DHT22;69265;43.614;13.518;2024-01-30T07:27:21;4.40;68.20
79786;DHT22;69265;43.614;13.518;2024-01-30T07:29:46;4.50;68.00
79786;DHT22;69265;43.614;13.518;2024-01-30T07:32:12;4.50;68.00
79786;DHT22;69265;43.614;13.518;2024-01-30T07:34:38;4.50;68.00
79786;DHT22;69265;43.614;13.518;2024-01-30T07:37:03;4.60;68.00
79786;DHT22;69265;43.614;13.518;2024-01-30T07:39:29;4.70;67.80
79786;DHT22;69265;43.614;13.518;2024-01-30T07:41:54;4.70;67.80
79786;DHT22;69265;43.614;13.518;2024-01-30T07:44:20;4.90;67.60
79786;DHT22;69265;43.614;13.518;2024-01-30T07:46:46;5.00;67.40
79786;DHT22;69265;43.614;13.518;2024-01-30T07:49:11;5.00;67.20
79786;DHT22;69265;43.614;13.518;2024-01-30T07:51:39;5.30;67.70
79786;DHT22;69265;43.614;13.518;2024-01-30T07:54:11;5.60;67.00
79786;DHT22;69265;43.614;13.518;2024-01-30T07:56:39;5.90;66.50
79786;DHT22;69265;43.614;13.518;2024-01-30T07:59:05;6.20;65.70
79786;DHT22;69265;43.614;13.518;2024-01-30T08:01:31;6.40;65.10
79786;DHT22;69265;43.614;13.518;2024-01-30T08:03:56;6.60;64.50
79786;DHT22;69265;43.614;13.518;2024-01-30T08:06:22;6.70;64.50
79786;DHT22;69265;43.614;13.518;2024-01-30T08:08:47;6.80;63.50
79786;DHT22;69265;43.614;13.518;2024-01-30T08:11:13;6.80;63.20
79786;DHT22;69265;43.614;13.518;2024-01-30T08:13:39;6.80;62.70
79786;DHT22;69265;43.614;13.518;2024-01-30T08:16:04;6.90;63.20
79786;DHT22;69265;43.614;13.518;2024-01-30T08:18:30;6.90;62.50
79786;DHT22;69265;43.614;13.518;2024-01-30T08:20:56;7.00;62.90
79786;DHT22;69265;43.614;13.518;2024-01-30T08:23:21;7.00;61.70
79786;DHT22;69265;43.614;13.518;2024-01-30T08:25:47;7.00;61.40
79786;DHT22;69265;43.614;13.518;2024-01-30T08:28:13;7.00;59.40
79786;DHT22;69265;43.614;13.518;2024-01-30T08:30:38;7.00;61.00
79786;DHT22;69265;43.614;13.518;2024-01-30T08:33:05;7.00;61.20
79786;DHT22;69265;43.614;13.518;2024-01-30T08:35:30;7.00;60.50
79786;DHT22;69265;43.614;13.518;2024-01-30T08:37:59;7.10;60.20
79786;DHT22;69265;43.614;13.518;2024-01-30T08:40:24;7.20;60.20
79786;DHT22;69265;43.614;13.518;2024-01-30T08:42:50;7.20;59.10
79786;DHT22;69265;43.614;13.518;2024-01-30T08:45:16;7.20;59.40
79786;DHT22;69265;43.614;13.518;2024-01-30T08:47:41;7.20;59.90
79786;DHT22;69265;43.614;13.518;2024-01-30T08:50:07;7.10;59.80
79786;DHT22;69265;43.614;13.518;2024-01-30T08:52:33;7.00;60.70
79786;DHT22;69265;43.614;13.518;2024-01-30T08:54:59;7.00;60.40
79786;DHT22;69265;43.614;13.518;2024-01-30T08:57:25;7.00;60.50
79786;DHT22;69265;43.614;13.518;2024-01-30T08:59:54;7.00;60.60
79786;DHT22;69265;43.614;13.518;2024-01-30T09:02:20;7.00;60.30
79786;DHT22;69265;43.614;13.518;2024-01-30T09:04:46;6.90;59.90
79786;DHT22;69265;43.614;13.518;2024-01-30T09:07:11;6.90;60.50
79786;DHT22;69265;43.614;13.518;2024-01-30T09:09:39;6.90;60.70
79786;DHT22;69265;43.614;13.518;2024-01-30T09:12:06;6.90;60.60
79786;DHT22;69265;43.614;13.518;2024-01-30T09:14:35;6.90;60.50
79786;DHT22;69265;43.614;13.518;2024-01-30T09:17:00;7.00;61.30
79786;DHT22;69265;43.614;13.518;2024-01-30T09:19:26;7.00;61.40
79786;DHT22;69265;43.614;13.518;2024-01-30T09:21:52;7.00;61.60
79786;DHT22;69265;43.614;13.518;2024-01-30T09:24:17;7.00;61.40
79786;DHT22;69265;43.614;13.518;2024-01-30T09:26:43;7.00;61.70
79786;DHT22;69265;43.614;13.518;2024-01-30T09:29:08;7.10;62.00
79786;DHT22;69265;43.614;13.518;2024-01-30T09:31:36;7.00;62.30
79786;DHT22;69265;43.614;13.518;2024-01-30T09:34:02;7.10;62.40
79786;DHT22;69265;43.614;13.518;2024-01-30T09:36:27;7.10;62.60
79786;DHT22;69265;43.614;13.518;2024-01-30T09:38:53;7.20;62.70
79786;DHT22;69265;43.614;13.518;2024-01-30T09:41:18;7.20;62.80
79786;DHT22;69265;43.614;13.518;2024-01-30T09:43:45;7.20;62.90
79786;DHT22;69265;43.614;13.518;2024-01-30T09:46:13;7.20;63.00
79786;DHT22;69265;43.614;13.518;2024-01-30T09:48:43;7.30;63.20
79786;DHT22;69265;43.614;13.518;2024-01-30T09:51:11;7.30;63.30
79786;DHT22;69265;43.614;13.518;2024-01-30T09:53:38;7.40;63.30
79786;DHT22;69265;43.614;13.518;2024-01-30T09:56:05;7.40;63.00
79786;DHT22;69265;43.614;13.518;2024-01-30T09:58:31;7.40;62.90
79786;DHT22;69265;43.614;13.518;2024-01-30T10:00:56;7.50;63.30
79786;DHT22;69265;43.614;13.518;2024-01-30T10:03:22;7.50;63.60
79786;DHT22;69265;43.614;13.518;2024-01-30T10:05:51;7.50;63.40
79786;DHT22;69265;43.614;13.518;2024-01-30T10:08:20;7.50;63.60
79786;DHT22;69265;43.614;13.518;2024-01-30T10:10:46;7.50;63.50
79786;DHT22;69265;43.614;13.518;2024-01-30T10:13:12;7.50;63.30
79786;DHT22;69265;43.614;13.518;2024-01-30T10:15:37;7.50;62.80
79786;DHT22;69265;43.614;13.518;2024-01-30T10:18:04;7.50;62.30
79786;DHT22;69265;43.614;13.518;2024-01-30T10:20:34;7.50;62.70
79786;DHT22;69265;43.614;13.518;2024-01-30T10:23:00;7.50;63.00
79786;DHT22;69265;43.614;13.518;2024-01-30T10:25:26;7.50;62.60
79786;DHT22;69265;43.614;13.518;2024-01-30T10:27:52;7.50;62.80
79786;DHT22;69265;43.614;13.518;2024-01-30T10:30:18;7.50;62.60
79786;DHT22;69265;43.614;13.518;2024-01-30T10:32:44;7.50;62.60
79786;DHT22;69265;43.614;13.518;2024-01-30T10:35:09;7.40;62.80
79786;DHT22;69265;43.614;13.518;2024-01-30T10:37:35;7.40;62.90
79786;DHT22;69265;43.614;13.518;2024-01-30T10:40:02;7.40;62.90
79786;DHT22;69265;43.614;13.518;2024-01-30T10:42:29;7.40;63.40
79786;DHT22;69265;43.614;13.518;2024-01-30T10:45:06;7.40;63.40
79786;DHT22;69265;43.614;13.518;2024-01-30T10:47:35;7.40;63.50
79786;DHT22;69265;43.614;13.518;2024-01-30T10:50:03;7.50;63.70
79786;DHT22;69265;43.614;13.518;2024-01-30T10:52:29;7.50;63.70
79786;DHT22;69265;43.614;13.518;2024-01-30T10:54:56;7.50;64.00
79786;DHT22;69265;43.614;13.518;2024-01-30T10:57:25;7.50;64.30
79786;DHT22;69265;43.614;13.518;2024-01-30T10:59:55;7.50;64.20
79786;DHT22;69265;43.614;13.518;2024-01-30T11:02:23;7.50;64.10
79786;DHT22;69265;43.614;13.518;2024-01-30T11:04:54;7.50;64.50
79786;DHT22;69265;43.614;13.518;2024-01-30T11:07:26;7.50;64.60
79786;DHT22;69265;43.614;13.518;2024-01-30T11:09:59;7.50;64.00
79786;DHT22;69265;43.614;13.518;2024-01-30T11:12:29;7.50;63.50
79786;DHT22;69265;43.614;13.518;2024-01-30T11:15:02;7.50;63.30
79786;DHT22;69265;43.614;13.518;2024-01-30T11:17:49;7.40;63.50
79786;DHT22;69265;43.614;13.518;2024-01-30T11:23:11;7.40;63.50
79786;DHT22;69265;43.614;13.518;2024-01-30T11:25:37;7.40;62.60
79786;DHT22;69265;43.614;13.518;2024-01-30T11:28:05;7.40;62.10
79786;DHT22;69265;43.614;13.518;2024-01-30T11:36:15;7.30;60.90
79786;DHT22;69265;43.614;13.518;2024-01-30T11:39:01;7.40;60.60
79786;DHT22;69265;43.614;13.518;2024-01-30T11:41:27;7.40;58.40
79786;DHT22;69265;43.614;13.518;2024-01-30T11:43:53;7.40;58.50
79786;DHT22;69265;43.614;13.518;2024-01-30T11:46:19;7.40;58.60
79786;DHT22;69265;43.614;13.518;2024-01-30T11:48:45;7.40;58.70
79786;DHT22;69265;43.614;13.518;2024-01-30T11:51:11;7.40;59.30
79786;DHT22;69265;43.614;13.518;2024-01-30T11:53:37;7.50;59.20
79786;DHT22;69265;43.614;13.518;2024-01-30T11:56:03;7.50;59.10
79786;DHT22;69265;43.614;13.518;2024-01-30T11:58:31;7.50;59.30
79786;DHT22;69265;43.614;13.518;2024-01-30T12:00:56;7.50;59.20
79786;DHT22;69265;43.614;13.518;2024-01-30T12:03:22;7.50;59.40
79786;DHT22;69265;43.614;13.518;2024-01-30T12:05:54;7.50;60.00
79786;DHT22;69265;43.614;13.518;2024-01-30T12:08:20;7.50;59.80
79786;DHT22;69265;43.614;13.518;2024-01-30T12:10:45;7.50;59.60
79786;DHT22;69265;43.614;13.518;2024-01-30T12:13:11;7.50;59.30
79786;DHT22;69265;43.614;13.518;2024-01-30T12:15:37;7.50;59.20
79786;DHT22;69265;43.614;13.518;2024-01-30T12:18:06;7.50;59.00
79786;DHT22;69265;43.614;13.518;2024-01-30T12:20:31;7.50;59.10
79786;DHT22;69265;43.614;13.518;2024-01-30T12:22:57;7.50;59.50
79786;DHT22;69265;43.614;13.518;2024-01-30T12:25:23;7.50;59.50
79786;DHT22;69265;43.614;13.518;2024-01-30T12:27:49;7.50;60.00
79786;DHT22;69265;43.614;13.518;2024-01-30T12:30:18;7.50;60.20
79786;DHT22;69265;43.614;13.518;2024-01-30T12:32:45;7.50;60.30
79786;DHT22;69265;43.614;13.518;2024-01-30T12:35:12;7.50;60.00
79786;DHT22;69265;43.614;13.518;2024-01-30T12:37:38;7.50;59.90
79786;DHT22;69265;43.614;13.518;2024-01-30T12:40:07;7.50;59.70
79786;DHT22;69265;43.614;13.518;2024-01-30T12:42:33;7.50;59.30
79786;DHT22;69265;43.614;13.518;2024-01-30T12:44:58;7.50;59.40
79786;DHT22;69265;43.614;13.518;2024-01-30T12:47:24;7.50;59.10
79786;DHT22;69265;43.614;13.518;2024-01-30T12:49:50;7.50;58.40
79786;DHT22;69265;43.614;13.518;2024-01-30T12:52:19;7.50;58.70
79786;DHT22;69265;43.614;13.518;2024-01-30T12:54:45;7.50;58.50
79786;DHT22;69265;43.614;13.518;2024-01-30T12:57:10;7.50;58.50
79786;DHT22;69265;43.614;13.518;2024-01-30T12:59:36;7.50;58.50
79786;DHT22;69265;43.614;13.518;2024-01-30T13:02:01;7.50;59.20
79786;DHT22;69265;43.614;13.518;2024-01-30T13:04:28;7.50;59.10
79786;DHT22;69265;43.614;13.518;2024-01-30T13:06:57;7.40;59.50
79786;DHT22;69265;43.614;13.518;2024-01-30T13:09:26;7.40;59.60
79786;DHT22;69265;43.614;13.518;2024-01-30T13:11:51;7.40;59.00
79786;DHT22;69265;43.614;13.518;2024-01-30T13:14:20;7.40;59.00
79786;DHT22;69265;43.614;13.518;2024-01-30T13:16:46;7.40;59.30
79786;DHT22;69265;43.614;13.518;2024-01-30T13:19:11;7.40;59.20
79786;DHT22;69265;43.614;13.518;2024-01-30T13:21:37;7.40;59.40
79786;DHT22;69265;43.614;13.518;2024-01-30T13:24:05;7.40;58.40
79786;DHT22;69265;43.614;13.518;2024-01-30T13:26:34;7.40;58.30
79786;DHT22;69265;43.614;13.518;2024-01-30T13:28:59;7.40;59.00
79786;DHT22;69265;43.614;13.518;2024-01-30T13:31:25;7.40;58.50
79786;DHT22;69265;43.614;13.518;2024-01-30T13:33:52;7.40;59.10
79786;DHT22;69265;43.614;13.518;2024-01-30T13:36:21;7.50;60.10
79786;DHT22;69265;43.614;13.518;2024-01-30T13:38:47;7.50;60.40
79786;DHT22;69265;43.614;13.518;2024-01-30T13:41:13;7.50;60.20
79786;DHT22;69265;43.614;13.518;2024-01-30T13:43:38;7.50;60.10
79786;DHT22;69265;43.614;13.518;2024-01-30T13:46:04;7.50;60.50
79786;DHT22;69265;43.614;13.518;2024-01-30T13:48:30;7.50;60.90
79786;DHT22;69265;43.614;13.518;2024-01-30T13:50:56;7.50;61.60
79786;DHT22;69265;43.614;13.518;2024-01-30T13:53:22;7.50;61.90
79786;DHT22;69265;43.614;13.518;2024-01-30T13:55:47;7.50;62.10
79786;DHT22;69265;43.614;13.518;2024-01-30T13:58:13;7.50;62.10
79786;DHT22;69265;43.614;13.518;2024-01-30T14:00:39;7.50;62.00
79786;DHT22;69265;43.614;13.518;2024-01-30T14:03:04;7.50;62.10
79786;DHT22;69265;43.614;13.518;2024-01-30T14:05:30;7.50;60.40
79786;DHT22;69265;43.614;13.518;2024-01-30T14:07:56;7.50;60.00
79786;DHT22;69265;43.614;13.518;2024-01-30T14:10:22;7.50;60.30
79786;DHT22;69265;43.614;13.518;2024-01-30T14:12:48;7.50;59.80
79786;DHT22;69265;43.614;13.518;2024-01-30T14:15:13;7.50;60.50
79786;DHT22;69265;43.614;13.518;2024-01-30T14:17:40;7.50;59.80
79786;DHT22;69265;43.614;13.518;2024-01-30T14:20:06;7.50;60.40
79786;DHT22;69265;43.614;13.518;2024-01-30T14:22:32;7.50;60.00
79786;DHT22;69265;43.614;13.518;2024-01-30T14:24:59;7.40;60.40
79786;DHT22;69265;43.614;13.518;2024-01-30T14:27:24;7.50;60.60
79786;DHT22;69265;43.614;13.518;2024-01-30T14:29:50;7.40;60.90
79786;DHT22;69265;43.614;13.518;2024-01-30T14:32:16;7.40;61.20
79786;DHT22;69265;43.614;13.518;2024-01-30T14:34:41;7.40;61.50
79786;DHT22;69265;43.614;13.518;2024-01-30T14:37:07;7.50;61.70
79786;DHT22;69265;43.614;13.518;2024-01-30T14:39:33;7.40;62.20
79786;DHT22;69265;43.614;13.518;2024-01-30T14:41:59;7.50;62.00
79786;DHT22;69265;43.614;13.518;2024-01-30T14:44:25;7.50;61.90
79786;DHT22;69265;43.614;13.518;2024-01-30T14:46:50;7.50;60.90
79786;DHT22;69265;43.614;13.518;2024-01-30T14:49:16;7.50;61.10
79786;DHT22;69265;43.614;13.518;2024-01-30T14:51:42;7.50;61.20
79786;DHT22;69265;43.614;13.518;2024-01-30T14:54:08;7.50;62.40
79786;DHT22;69265;43.614;13.518;2024-01-30T14:56:33;7.60;64.00
79786;DHT22;69265;43.614;13.518;2024-01-30T14:58:59;7.60;65.20
79786;DHT22;69265;43.614;13.518;2024-01-30T15:01:25;7.70;65.60
79786;DHT22;69265;43.614;13.518;2024-01-30T15:03:50;7.70;66.10
79786;DHT22;69265;43.614;13.518;2024-01-30T15:06:20;7.70;66.60
79786;DHT22;69265;43.614;13.518;2024-01-30T15:08:52;7.70;67.50
79786;DHT22;69265;43.614;13.518;2024-01-30T15:11:18;7.60;67.50
79786;DHT22;69265;43.614;13.518;2024-01-30T15:13:43;7.60;67.20
79786;DHT22;69265;43.614;13.518;2024-01-30T15:16:14;7.60;67.20
79786;DHT22;69265;43.614;13.518;2024-01-30T15:18:39;7.60;66.90
79786;DHT22;69265;43.614;13.518;2024-01-30T15:21:05;7.50;67.20
79786;DHT22;69265;43.614;13.518;2024-01-30T15:23:31;7.50;67.40
79786;DHT22;69265;43.614;13.518;2024-01-30T15:25:56;7.50;67.50
79786;DHT22;69265;43.614;13.518;2024-01-30T15:28:36;7.50;67.50
79786;DHT22;69265;43.614;13.518;2024-01-30T15:31:03;7.40;67.60
79786;DHT22;69265;43.614;13.518;2024-01-30T15:33:28;7.40;67.70
79786;DHT22;69265;43.614;13.518;2024-01-30T15:35:54;7.30;67.80